Terminal Aerodrome Forecast
Issued by NWS

Home | Current Version | Previous Version | Text Only | Print | Product List | Glossary On
Versions: 1 2 3 4 5 6 7 8 9 10 11 12 13 14 15 16 17 18 19 20 21 22 23
685
FTUS41 KPBZ 271120
TAFLBE
TAF
KLBE 271120Z 2712/2812 21005KT P6SM SCT250
     FM271700 21007KT P6SM VCSH OVC050
     FM272100 21006KT P6SM OVC035
     FM280000 15004KT P6SM OVC050
     FM280600 12007KT P6SM BKN100=

USA.gov is the U.S. government's official web portal to all federal, state and local government web resources and services.